Observations for MIDDLE WALLOP, United Kingdom (EGVP)

EGVP 280450Z AUTO 04006KT 2300 // BKN002/// BKN007/// 15/15 Q0998   
EGVP 280350Z AUTO 04006KT 2600 // OVC001/// 15/15 Q0998 
EGVP 280250Z AUTO 06005KT 1100 // BKN002/// SCT050/// 15/15 Q0999   
EGVP 280150Z AUTO 06004KT 1300 // SCT003/// SCT038/// BKN050/// 15/15 Q0999 
EGVP 280050Z AUTO 04005KT 1900 // FEW003/// BKN014/// 16/15 Q1000   
EGVP 272350Z AUTO 07007KT 1300 // FEW003/// BKN018/// 16/15 Q1001   
EGVP 272250Z AUTO 07005KT 1500 // BKN002/// SCT010/// 16/16 Q1001   
EGVP 272150Z AUTO 12005KT 0800 // FEW002/// BKN013/// 17/16 Q1002   
EGVP 272050Z AUTO 36001KT 3400 // FEW003/// BKN010/// 17/16 Q1002   
EGVP 271950Z 03002KT 4000 -RA FEW002 OVC012 17/17 Q1002 GRN 
EGVP 271850Z 13002KT 5000 -RADZ FEW005 SCT008 OVC090 18/17 Q1003 GRN
EGVP 271831Z 00000KT 6000 -RA FEW005 SCT008 OVC090 18/17 Q1003 GRN
EGVP 271809Z 00000KT 7000 -RA FEW009 OVC090 18/16 Q1003 WHT BECMG BKN012 GRN
EGVP 271750Z 17001KT 7000 -RA FEW012 SCT015 OVC100 18/16 Q1003 WHT BECMG BKN012 GRN 
EGVP 271742Z 13001KT 7000 -RA FEW010 SCT013 OVC100 18/16 Q1003 GRN TEMPO 9000 FEW013 BLU
EGVP 271712Z 17001KT 9000 -RA FEW011 OVC100 18/16 Q1003 BLU TEMPO 7000 SCT011 GRN
EGVP 271638Z 23002KT 9000 -RA SCT012 OVC090 18/16 Q1004 GRN TEMPO FEW015 BLU
EGVP 271638Z 23002KT 9000 -RA SCT012 OVC090 18/16 Q1004 GRN TEMPO FEW015 BLU
EGVP 271550Z 31001KT 9999 -RA FEW011 OVC100 18/16 Q1004 BLU BECMG SCT019 WHT
EGVP 271450Z 26001KT 8000 -RA FEW026 SCT075 OVC090 18/16 Q1005 BLU BECMG BKN020 WHT 
EGVP 271350Z 21003KT 9999 -RA FEW020 SCT027 BKN070 20/15 Q1005 BLU TEMPO 6000 SHRA SCT020 WHT   
EGVP 271250Z 18002KT 9999 -RA SCT028 BKN080 OVC140 20/13 Q1005 BLU TEMPO 6000 SHRA SCT022 WHT   
EGVP 271150Z 16004KT 9999 FEW030 BKN040 OVC140 22/13 Q1005 BLU BECMG BKN018 WHT 
EGVP 271050Z 23003KT 9999 FEW030 BKN035 BKN140 20/12 Q1006 BLU BECMG BKN018 WHT 
EGVP 270950Z 15005KT 9999 SCT042 BKN140 19/12 Q1007 BLU BECMG BKN018 WHT
EGVP 270850Z 09007KT 9999 SCT038 BKN140 BKN210 18/11 Q1007 BLU NOSIG
EGVP 270750Z 09005KT 9999 BKN039 BKN050 16/10 Q1007 BLU NOSIG   
EGVP 270650Z 08007KT 9999 BKN043 15/08 Q1008 BLU NOSIG  
EGVP 270550Z 05005KT 9999 BKN046 SCT230 15/08 Q1008 BLU 
EGVP 270450Z AUTO 06005KT 9999 // FEW037/// BKN050/// 14/08 Q1008